Time,TemperatureF,DewpointF,PressureIn,WindDirection,WindDirectionDegrees,WindSpeedMPH,WindSpeedGustMPH,Humidity,HourlyPrecipIn,Conditions,Clouds,dailyrainin,SoftwareType,DateUTC
2013-06-20 00:00:00,69.3,63.2,30.09,NE,45,5.0,-999.0,81,0.00,,,0.00,Wunderground v.1.15,2013-06-20 10:00:00,
2013-06-20 00:05:00,69.3,63.2,30.09,NE,45,5.0,-999.0,81,0.00,,,0.00,Wunderground v.1.15,2013-06-20 10:05:00,
2013-06-20 00:10:00,69.3,63.2,30.09,NE,45,5.0,-999.0,81,0.00,,,0.00,Wunderground v.1.15,2013-06-20 10:10:00,
2013-06-20 00:15:00,69.3,63.2,30.09,NE,45,5.0,-999.0,81,0.00,,,0.00,Wunderground v.1.15,2013-06-20 10:15:00,
2013-06-20 00:20:00,69.3,63.2,30.09,NE,45,5.0,-999.0,81,0.00,,,0.00,Wunderground v.1.15,2013-06-20 10:20:00,
2013-06-20 00:25:00,69.3,63.2,30.09,NE,45,5.0,-999.0,81,0.00,,,0.00,Wunderground v.1.15,2013-06-20 10:25:00,
2013-06-20 00:30:00,69.3,63.2,30.09,NE,45,5.0,-999.0,81,0.00,,,0.00,Wunderground v.1.15,2013-06-20 10:30:00,
2013-06-20 00:35:00,69.3,63.2,30.09,NE,45,5.0,-999.0,81,0.00,,,0.00,Wunderground v.1.15,2013-06-20 10:35:00,
2013-06-20 00:40:00,69.3,63.2,30.09,NE,45,5.0,-999.0,81,0.00,,,0.00,Wunderground v.1.15,2013-06-20 10:40:00,
2013-06-20 00:45:00,68.8,63.1,30.08,NE,45,3.0,-999.0,82,0.00,,,0.00,Wunderground v.1.15,2013-06-20 10:45:00,
2013-06-20 00:50:00,68.8,63.1,30.08,NE,45,3.0,-999.0,82,0.00,,,0.00,Wunderground v.1.15,2013-06-20 10:50:00,
2013-06-20 00:55:00,68.8,63.1,30.08,NE,45,3.0,-999.0,82,0.00,,,0.00,Wunderground v.1.15,2013-06-20 10:55:00,
2013-06-20 01:00:00,68.8,63.1,30.08,NE,45,3.0,-999.0,82,0.00,,,0.00,Wunderground v.1.15,2013-06-20 11:00:00,
2013-06-20 01:05:00,68.8,63.1,30.08,NE,45,3.0,-999.0,82,0.00,,,0.00,Wunderground v.1.15,2013-06-20 11:05:00,
2013-06-20 01:10:00,68.8,63.1,30.08,NE,45,3.0,-999.0,82,0.00,,,0.00,Wunderground v.1.15,2013-06-20 11:10:00,
2013-06-20 01:15:00,68.2,62.8,30.06,NE,45,2.0,-999.0,83,0.00,,,0.00,Wunderground v.1.15,2013-06-20 11:15:00,
2013-06-20 01:20:00,68.2,62.8,30.06,NE,45,2.0,-999.0,83,0.00,,,0.00,Wunderground v.1.15,2013-06-20 11:20:00,
2013-06-20 01:25:00,68.2,62.8,30.06,NE,45,2.0,-999.0,83,0.00,,,0.00,Wunderground v.1.15,2013-06-20 11:25:00,
2013-06-20 01:30:00,68.2,62.8,30.06,NE,45,2.0,-999.0,83,0.00,,,0.00,Wunderground v.1.15,2013-06-20 11:30:00,
2013-06-20 01:35:00,68.2,62.8,30.06,NE,45,2.0,-999.0,83,0.00,,,0.00,Wunderground v.1.15,2013-06-20 11:35:00,
2013-06-20 01:40:00,68.2,62.8,30.06,NE,45,2.0,-999.0,83,0.00,,,0.00,Wunderground v.1.15,2013-06-20 11:40:00,
2013-06-20 01:45:00,68.5,63.5,30.05,NE,45,3.0,-999.0,84,0.00,,,0.00,Wunderground v.1.15,2013-06-20 11:45:00,
2013-06-20 01:50:00,68.5,63.5,30.05,NE,45,3.0,-999.0,84,0.00,,,0.00,Wunderground v.1.15,2013-06-20 11:50:00,
2013-06-20 01:55:00,68.5,63.5,30.05,NE,45,3.0,-999.0,84,0.00,,,0.00,Wunderground v.1.15,2013-06-20 11:55:00,
2013-06-20 02:00:00,68.5,63.5,30.05,NE,45,3.0,-999.0,84,0.00,,,0.00,Wunderground v.1.15,2013-06-20 12:00:00,
2013-06-20 02:05:00,68.5,63.5,30.05,NE,45,3.0,-999.0,84,0.00,,,0.00,Wunderground v.1.15,2013-06-20 12:05:00,
2013-06-20 02:10:00,68.5,63.5,30.05,NE,45,3.0,-999.0,84,0.00,,,0.00,Wunderground v.1.15,2013-06-20 12:10:00,
2013-06-20 02:15:00,69.4,64.4,30.04,NE,45,4.0,-999.0,84,0.00,,,0.00,Wunderground v.1.15,2013-06-20 12:15:00,
2013-06-20 02:20:00,69.4,64.4,30.04,NE,45,4.0,-999.0,84,0.00,,,0.00,Wunderground v.1.15,2013-06-20 12:20:00,
2013-06-20 02:25:00,69.4,64.4,30.04,NE,45,4.0,-999.0,84,0.00,,,0.00,Wunderground v.1.15,2013-06-20 12:25:00,
2013-06-20 02:30:00,69.4,64.4,30.04,NE,45,4.0,-999.0,84,0.00,,,0.00,Wunderground v.1.15,2013-06-20 12:30:00,
2013-06-20 02:35:00,69.4,64.4,30.04,NE,45,4.0,-999.0,84,0.00,,,0.00,Wunderground v.1.15,2013-06-20 12:35:00,
2013-06-20 02:40:00,69.4,64.4,30.04,NE,45,4.0,-999.0,84,0.00,,,0.00,Wunderground v.1.15,2013-06-20 12:40:00,
2013-06-20 02:45:00,68.6,64.2,30.04,NE,45,3.0,-999.0,86,0.00,,,0.00,Wunderground v.1.15,2013-06-20 12:45:00,
2013-06-20 02:50:00,68.6,64.2,30.04,NE,45,3.0,-999.0,86,0.00,,,0.00,Wunderground v.1.15,2013-06-20 12:50:00,
2013-06-20 02:55:00,68.6,64.2,30.04,NE,45,3.0,-999.0,86,0.00,,,0.00,Wunderground v.1.15,2013-06-20 12:55:00,
2013-06-20 03:00:00,68.6,64.2,30.04,NE,45,3.0,-999.0,86,0.00,,,0.00,Wunderground v.1.15,2013-06-20 13:00:00,
2013-06-20 03:05:00,68.6,64.2,30.04,NE,45,3.0,-999.0,86,0.00,,,0.00,Wunderground v.1.15,2013-06-20 13:05:00,
2013-06-20 03:10:00,68.6,64.2,30.04,NE,45,3.0,-999.0,86,0.00,,,0.00,Wunderground v.1.15,2013-06-20 13:10:00,
2013-06-20 03:15:00,68.0,64.0,30.04,NE,45,3.0,-999.0,87,0.00,,,0.00,Wunderground v.1.15,2013-06-20 13:15:00,
2013-06-20 03:20:00,68.0,64.0,30.04,NE,45,3.0,-999.0,87,0.00,,,0.00,Wunderground v.1.15,2013-06-20 13:20:00,
2013-06-20 03:25:00,68.0,64.0,30.04,NE,45,3.0,-999.0,87,0.00,,,0.00,Wunderground v.1.15,2013-06-20 13:25:00,
2013-06-20 03:30:00,68.0,64.0,30.04,NE,45,3.0,-999.0,87,0.00,,,0.00,Wunderground v.1.15,2013-06-20 13:30:00,
2013-06-20 03:35:00,68.0,64.0,30.04,NE,45,3.0,-999.0,87,0.00,,,0.00,Wunderground v.1.15,2013-06-20 13:35:00,
2013-06-20 03:40:00,68.0,64.0,30.04,NE,45,3.0,-999.0,87,0.00,,,0.00,Wunderground v.1.15,2013-06-20 13:40:00,
2013-06-20 03:45:00,67.6,63.9,30.05,NE,45,2.0,-999.0,88,0.00,,,0.00,Wunderground v.1.15,2013-06-20 13:45:00,
2013-06-20 03:50:00,67.6,63.9,30.05,NE,45,2.0,-999.0,88,0.00,,,0.00,Wunderground v.1.15,2013-06-20 13:50:00,
2013-06-20 03:55:00,67.6,63.9,30.05,NE,45,2.0,-999.0,88,0.00,,,0.00,Wunderground v.1.15,2013-06-20 13:55:00,
2013-06-20 04:00:00,67.6,63.9,30.05,NE,45,2.0,-999.0,88,0.00,,,0.00,Wunderground v.1.15,2013-06-20 14:00:00,
2013-06-20 04:05:00,67.6,63.9,30.05,NE,45,2.0,-999.0,88,0.00,,,0.00,Wunderground v.1.15,2013-06-20 14:05:00,
2013-06-20 04:10:00,67.6,63.9,30.05,NE,45,2.0,-999.0,88,0.00,,,0.00,Wunderground v.1.15,2013-06-20 14:10:00,
2013-06-20 04:15:00,66.8,63.8,30.03,NE,45,2.0,-999.0,90,0.00,,,0.00,Wunderground v.1.15,2013-06-20 14:15:00,
2013-06-20 04:20:00,66.8,63.8,30.03,NE,45,2.0,-999.0,90,0.00,,,0.00,Wunderground v.1.15,2013-06-20 14:20:00,
2013-06-20 04:25:00,66.8,63.8,30.03,NE,45,2.0,-999.0,90,0.00,,,0.00,Wunderground v.1.15,2013-06-20 14:25:00,
2013-06-20 04:30:00,66.8,63.8,30.03,NE,45,2.0,-999.0,90,0.00,,,0.00,Wunderground v.1.15,2013-06-20 14:30:00,
2013-06-20 04:35:00,66.8,63.8,30.03,NE,45,2.0,-999.0,90,0.00,,,0.00,Wunderground v.1.15,2013-06-20 14:35:00,
2013-06-20 04:40:00,66.8,63.8,30.03,NE,45,2.0,-999.0,90,0.00,,,0.00,Wunderground v.1.15,2013-06-20 14:40:00,
2013-06-20 04:45:00,66.5,63.8,30.04,NE,45,0.0,-999.0,91,0.00,,,0.00,Wunderground v.1.15,2013-06-20 14:45:00,
2013-06-20 04:50:00,66.5,63.8,30.04,NE,45,0.0,-999.0,91,0.00,,,0.00,Wunderground v.1.15,2013-06-20 14:50:00,
2013-06-20 04:55:00,66.5,63.8,30.04,NE,45,0.0,-999.0,91,0.00,,,0.00,Wunderground v.1.15,2013-06-20 14:55:00,
2013-06-20 05:00:00,66.5,63.8,30.04,NE,45,0.0,-999.0,91,0.00,,,0.00,Wunderground v.1.15,2013-06-20 15:00:00,
2013-06-20 05:05:00,66.5,63.8,30.04,NE,45,0.0,-999.0,91,0.00,,,0.00,Wunderground v.1.15,2013-06-20 15:05:00,
2013-06-20 05:10:00,66.5,63.8,30.04,NE,45,0.0,-999.0,91,0.00,,,0.00,Wunderground v.1.15,2013-06-20 15:10:00,
2013-06-20 05:15:00,66.6,63.9,30.04,NE,45,1.0,-999.0,91,0.00,,,0.00,Wunderground v.1.15,2013-06-20 15:15:00,
2013-06-20 05:20:00,66.6,63.9,30.04,NE,45,1.0,-999.0,91,0.00,,,0.00,Wunderground v.1.15,2013-06-20 15:20:00,
2013-06-20 05:25:00,66.6,63.9,30.04,NE,45,1.0,-999.0,91,0.00,,,0.00,Wunderground v.1.15,2013-06-20 15:25:00,
2013-06-20 05:30:00,66.6,63.9,30.04,NE,45,1.0,-999.0,91,0.00,,,0.00,Wunderground v.1.15,2013-06-20 15:30:00,
2013-06-20 05:35:00,66.6,63.9,30.04,NE,45,1.0,-999.0,91,0.00,,,0.00,Wunderground v.1.15,2013-06-20 15:35:00,
2013-06-20 05:40:00,66.6,63.9,30.04,NE,45,1.0,-999.0,91,0.00,,,0.00,Wunderground v.1.15,2013-06-20 15:40:00,
2013-06-20 05:45:00,66.9,64.5,30.04,NE,45,3.0,-999.0,92,0.00,,,0.00,Wunderground v.1.15,2013-06-20 15:45:00,
2013-06-20 05:50:00,66.9,64.5,30.04,NE,45,3.0,-999.0,92,0.00,,,0.00,Wunderground v.1.15,2013-06-20 15:50:00,
2013-06-20 05:55:00,66.9,64.5,30.04,NE,45,3.0,-999.0,92,0.00,,,0.00,Wunderground v.1.15,2013-06-20 15:55:00,
2013-06-20 06:00:00,66.9,64.5,30.04,NE,45,3.0,-999.0,92,0.00,,,0.00,Wunderground v.1.15,2013-06-20 16:00:00,
2013-06-20 06:05:00,66.9,64.5,30.04,NE,45,3.0,-999.0,92,0.00,,,0.00,Wunderground v.1.15,2013-06-20 16:05:00,
2013-06-20 06:10:00,66.9,64.5,30.04,NE,45,3.0,-999.0,92,0.00,,,0.00,Wunderground v.1.15,2013-06-20 16:10:00,
2013-06-20 06:15:00,67.4,65.0,30.05,NE,45,3.0,-999.0,92,0.00,,,0.00,Wunderground v.1.15,2013-06-20 16:15:00,
2013-06-20 06:20:00,67.4,65.0,30.05,NE,45,3.0,-999.0,92,0.00,,,0.00,Wunderground v.1.15,2013-06-20 16:20:00,
2013-06-20 06:25:00,67.4,65.0,30.05,NE,45,3.0,-999.0,92,0.00,,,0.00,Wunderground v.1.15,2013-06-20 16:25:00,
2013-06-20 06:30:00,67.4,65.0,30.05,NE,45,3.0,-999.0,92,0.00,,,0.00,Wunderground v.1.15,2013-06-20 16:30:00,
2013-06-20 06:35:00,67.4,65.0,30.05,NE,45,3.0,-999.0,92,0.00,,,0.00,Wunderground v.1.15,2013-06-20 16:35:00,
2013-06-20 06:40:00,67.4,65.0,30.05,NE,45,3.0,-999.0,92,0.00,,,0.00,Wunderground v.1.15,2013-06-20 16:40:00,
2013-06-20 06:45:00,68.1,64.7,30.06,NE,45,2.0,-999.0,89,0.00,,,0.00,Wunderground v.1.15,2013-06-20 16:45:00,
2013-06-20 06:50:00,68.1,64.7,30.06,NE,45,2.0,-999.0,89,0.00,,,0.00,Wunderground v.1.15,2013-06-20 16:50:00,
2013-06-20 06:55:00,68.1,64.7,30.06,NE,45,2.0,-999.0,89,0.00,,,0.00,Wunderground v.1.15,2013-06-20 16:55:00,
2013-06-20 07:00:00,68.1,64.7,30.06,NE,45,2.0,-999.0,89,0.00,,,0.00,Wunderground v.1.15,2013-06-20 17:00:00,
2013-06-20 07:05:00,68.1,64.7,30.06,NE,45,2.0,-999.0,89,0.00,,,0.00,Wunderground v.1.15,2013-06-20 17:05:00,
2013-06-20 07:10:00,68.1,64.7,30.06,NE,45,2.0,-999.0,89,0.00,,,0.00,Wunderground v.1.15,2013-06-20 17:10:00,
2013-06-20 07:15:00,69.2,65.2,30.06,NE,45,2.0,-999.0,87,0.00,,,0.00,Wunderground v.1.15,2013-06-20 17:15:00,
2013-06-20 07:20:00,69.2,65.2,30.06,NE,45,2.0,-999.0,87,0.00,,,0.00,Wunderground v.1.15,2013-06-20 17:20:00,
2013-06-20 07:25:00,69.2,65.2,30.06,NE,45,2.0,-999.0,87,0.00,,,0.00,Wunderground v.1.15,2013-06-20 17:25:00,
2013-06-20 07:30:00,69.2,65.2,30.06,NE,45,2.0,-999.0,87,0.00,,,0.00,Wunderground v.1.15,2013-06-20 17:30:00,
2013-06-20 07:35:00,69.2,65.2,30.06,NE,45,2.0,-999.0,87,0.00,,,0.00,Wunderground v.1.15,2013-06-20 17:35:00,
2013-06-20 07:40:00,69.2,65.2,30.06,NE,45,2.0,-999.0,87,0.00,,,0.00,Wunderground v.1.15,2013-06-20 17:40:00,
2013-06-20 07:45:00,71.5,63.9,30.06,NE,45,3.0,-999.0,77,0.00,,,0.00,Wunderground v.1.15,2013-06-20 17:45:00,
2013-06-20 07:50:00,71.5,63.9,30.06,NE,45,3.0,-999.0,77,0.00,,,0.00,Wunderground v.1.15,2013-06-20 17:50:00,
2013-06-20 07:55:00,71.5,63.9,30.06,NE,45,3.0,-999.0,77,0.00,,,0.00,Wunderground v.1.15,2013-06-20 17:55:00,
2013-06-20 08:00:00,71.5,63.9,30.06,NE,45,3.0,-999.0,77,0.00,,,0.00,Wunderground v.1.15,2013-06-20 18:00:00,
2013-06-20 08:05:00,71.5,63.9,30.06,NE,45,3.0,-999.0,77,0.00,,,0.00,Wunderground v.1.15,2013-06-20 18:05:00,
2013-06-20 08:10:00,71.5,63.9,30.06,NE,45,3.0,-999.0,77,0.00,,,0.00,Wunderground v.1.15,2013-06-20 18:10:00,
2013-06-20 08:15:00,75.7,64.4,30.07,NE,45,3.0,-999.0,68,0.00,,,0.00,Wunderground v.1.15,2013-06-20 18:15:00,
2013-06-20 08:20:00,75.7,64.4,30.07,NE,45,3.0,-999.0,68,0.00,,,0.00,Wunderground v.1.15,2013-06-20 18:20:00,
2013-06-20 08:25:00,75.7,64.4,30.07,NE,45,3.0,-999.0,68,0.00,,,0.00,Wunderground v.1.15,2013-06-20 18:25:00,
2013-06-20 08:30:00,75.7,64.4,30.07,NE,45,3.0,-999.0,68,0.00,,,0.00,Wunderground v.1.15,2013-06-20 18:30:00,
2013-06-20 08:35:00,75.7,64.4,30.07,NE,45,3.0,-999.0,68,0.00,,,0.00,Wunderground v.1.15,2013-06-20 18:35:00,
2013-06-20 08:40:00,75.7,64.4,30.07,NE,45,3.0,-999.0,68,0.00,,,0.00,Wunderground v.1.15,2013-06-20 18:40:00,
2013-06-20 08:45:00,77.6,64.9,30.07,NE,45,4.0,-999.0,65,0.00,,,0.00,Wunderground v.1.15,2013-06-20 18:45:00,
2013-06-20 08:50:00,77.6,64.9,30.07,NE,45,4.0,-999.0,65,0.00,,,0.00,Wunderground v.1.15,2013-06-20 18:50:00,
2013-06-20 08:55:00,77.6,64.9,30.07,NE,45,4.0,-999.0,65,0.00,,,0.00,Wunderground v.1.15,2013-06-20 18:55:00,
2013-06-20 09:00:00,77.6,64.9,30.07,NE,45,4.0,-999.0,65,0.00,,,0.00,Wunderground v.1.15,2013-06-20 19:00:00,
2013-06-20 09:05:00,77.6,64.9,30.07,NE,45,4.0,-999.0,65,0.00,,,0.00,Wunderground v.1.15,2013-06-20 19:05:00,
2013-06-20 09:10:00,77.6,64.9,30.07,NE,45,4.0,-999.0,65,0.00,,,0.00,Wunderground v.1.15,2013-06-20 19:10:00,
2013-06-20 09:15:00,78.8,65.1,30.07,NE,45,4.0,-999.0,63,0.00,,,0.00,Wunderground v.1.15,2013-06-20 19:15:00,
2013-06-20 09:20:00,78.8,65.1,30.07,NE,45,4.0,-999.0,63,0.00,,,0.00,Wunderground v.1.15,2013-06-20 19:20:00,
2013-06-20 09:25:00,78.8,65.1,30.07,NE,45,4.0,-999.0,63,0.00,,,0.00,Wunderground v.1.15,2013-06-20 19:25:00,
2013-06-20 09:30:00,78.8,65.1,30.07,NE,45,4.0,-999.0,63,0.00,,,0.00,Wunderground v.1.15,2013-06-20 19:30:00,
2013-06-20 09:35:00,78.8,65.1,30.07,NE,45,4.0,-999.0,63,0.00,,,0.00,Wunderground v.1.15,2013-06-20 19:35:00,
2013-06-20 09:40:00,78.8,65.1,30.07,NE,45,4.0,-999.0,63,0.00,,,0.00,Wunderground v.1.15,2013-06-20 19:40:00,
2013-06-20 09:45:00,80.3,63.7,30.07,NE,45,6.0,-999.0,57,0.00,,,0.00,Wunderground v.1.15,2013-06-20 19:45:00,
2013-06-20 09:50:00,80.3,63.7,30.07,NE,45,6.0,-999.0,57,0.00,,,0.00,Wunderground v.1.15,2013-06-20 19:50:00,
2013-06-20 09:55:00,80.3,63.7,30.07,NE,45,6.0,-999.0,57,0.00,,,0.00,Wunderground v.1.15,2013-06-20 19:55:00,
2013-06-20 10:00:00,80.3,63.7,30.07,NE,45,6.0,-999.0,57,0.00,,,0.00,Wunderground v.1.15,2013-06-20 20:00:00,
2013-06-20 10:05:00,80.3,63.7,30.07,NE,45,6.0,-999.0,57,0.00,,,0.00,Wunderground v.1.15,2013-06-20 20:05:00,
2013-06-20 10:10:00,80.3,63.7,30.07,NE,45,6.0,-999.0,57,0.00,,,0.00,Wunderground v.1.15,2013-06-20 20:10:00,
2013-06-20 10:15:00,82.3,63.5,30.07,NE,45,6.0,-999.0,53,0.00,,,0.00,Wunderground v.1.15,2013-06-20 20:15:00,
2013-06-20 10:20:00,82.3,63.5,30.07,NE,45,6.0,-999.0,53,0.00,,,0.00,Wunderground v.1.15,2013-06-20 20:20:00,
2013-06-20 10:25:00,82.3,63.5,30.07,NE,45,6.0,-999.0,53,0.00,,,0.00,Wunderground v.1.15,2013-06-20 20:25:00,
2013-06-20 10:30:00,82.3,63.5,30.07,NE,45,6.0,-999.0,53,0.00,,,0.00,Wunderground v.1.15,2013-06-20 20:30:00,
2013-06-20 10:35:00,82.3,63.5,30.07,NE,45,6.0,-999.0,53,0.00,,,0.00,Wunderground v.1.15,2013-06-20 20:35:00,
2013-06-20 10:40:00,82.3,63.5,30.07,NE,45,6.0,-999.0,53,0.00,,,0.00,Wunderground v.1.15,2013-06-20 20:40:00,
2013-06-20 10:45:00,83.3,62.7,30.07,NE,45,6.0,-999.0,50,0.00,,,0.00,Wunderground v.1.15,2013-06-20 20:45:00,
2013-06-20 10:50:00,83.3,62.7,30.07,NE,45,6.0,-999.0,50,0.00,,,0.00,Wunderground v.1.15,2013-06-20 20:50:00,
2013-06-20 10:55:00,83.3,62.7,30.07,NE,45,6.0,-999.0,50,0.00,,,0.00,Wunderground v.1.15,2013-06-20 20:55:00,
2013-06-20 11:00:00,83.3,62.7,30.07,NE,45,6.0,-999.0,50,0.00,,,0.00,Wunderground v.1.15,2013-06-20 21:00:00,
2013-06-20 11:05:00,83.3,62.7,30.07,NE,45,6.0,-999.0,50,0.00,,,0.00,Wunderground v.1.15,2013-06-20 21:05:00,
2013-06-20 11:10:00,83.3,62.7,30.07,NE,45,6.0,-999.0,50,0.00,,,0.00,Wunderground v.1.15,2013-06-20 21:10:00,
2013-06-20 11:15:00,83.9,64.4,30.07,NE,45,8.0,-999.0,52,0.00,,,0.00,Wunderground v.1.15,2013-06-20 21:15:00,
2013-06-20 11:20:00,83.9,64.4,30.07,NE,45,8.0,-999.0,52,0.00,,,0.00,Wunderground v.1.15,2013-06-20 21:20:00,
2013-06-20 11:25:00,83.9,64.4,30.07,NE,45,8.0,-999.0,52,0.00,,,0.00,Wunderground v.1.15,2013-06-20 21:25:00,
2013-06-20 11:30:00,83.9,64.4,30.07,NE,45,8.0,-999.0,52,0.00,,,0.00,Wunderground v.1.15,2013-06-20 21:30:00,
2013-06-20 11:35:00,83.9,64.4,30.07,NE,45,8.0,-999.0,52,0.00,,,0.00,Wunderground v.1.15,2013-06-20 21:35:00,
2013-06-20 11:40:00,83.9,64.4,30.07,NE,45,8.0,-999.0,52,0.00,,,0.00,Wunderground v.1.15,2013-06-20 21:40:00,
2013-06-20 11:45:00,83.1,65.3,30.05,NE,45,8.0,-999.0,55,0.00,,,0.00,Wunderground v.1.15,2013-06-20 21:45:00,
2013-06-20 11:50:00,83.1,65.3,30.05,NE,45,8.0,-999.0,55,0.00,,,0.00,Wunderground v.1.15,2013-06-20 21:50:00,
2013-06-20 11:55:00,83.1,65.3,30.05,NE,45,8.0,-999.0,55,0.00,,,0.00,Wunderground v.1.15,2013-06-20 21:55:00,
2013-06-20 12:00:00,83.1,65.3,30.05,NE,45,8.0,-999.0,55,0.00,,,0.00,Wunderground v.1.15,2013-06-20 22:00:00,
2013-06-20 12:05:00,83.1,65.3,30.05,NE,45,8.0,-999.0,55,0.00,,,0.00,Wunderground v.1.15,2013-06-20 22:05:00,
2013-06-20 12:10:00,83.1,65.3,30.05,NE,45,8.0,-999.0,55,0.00,,,0.00,Wunderground v.1.15,2013-06-20 22:10:00,
2013-06-20 12:15:00,84.9,65.9,30.05,NE,45,8.0,-999.0,53,0.00,,,0.00,Wunderground v.1.15,2013-06-20 22:15:00,
2013-06-20 12:20:00,84.9,65.9,30.05,NE,45,8.0,-999.0,53,0.00,,,0.00,Wunderground v.1.15,2013-06-20 22:20:00,
2013-06-20 12:25:00,84.9,65.9,30.05,NE,45,8.0,-999.0,53,0.00,,,0.00,Wunderground v.1.15,2013-06-20 22:25:00,
2013-06-20 12:30:00,84.9,65.9,30.05,NE,45,8.0,-999.0,53,0.00,,,0.00,Wunderground v.1.15,2013-06-20 22:30:00,
2013-06-20 12:35:00,84.9,65.9,30.05,NE,45,8.0,-999.0,53,0.00,,,0.00,Wunderground v.1.15,2013-06-20 22:35:00,
2013-06-20 12:40:00,84.9,65.9,30.05,NE,45,8.0,-999.0,53,0.00,,,0.00,Wunderground v.1.15,2013-06-20 22:40:00,
2013-06-20 12:45:00,84.9,66.4,30.05,NE,45,8.0,-999.0,54,0.00,,,0.00,Wunderground v.1.15,2013-06-20 22:45:00,
2013-06-20 12:50:00,84.9,66.4,30.05,NE,45,8.0,-999.0,54,0.00,,,0.00,Wunderground v.1.15,2013-06-20 22:50:00,
2013-06-20 12:55:00,84.9,66.4,30.05,NE,45,8.0,-999.0,54,0.00,,,0.00,Wunderground v.1.15,2013-06-20 22:55:00,
2013-06-20 13:00:00,84.9,66.4,30.05,NE,45,8.0,-999.0,54,0.00,,,0.00,Wunderground v.1.15,2013-06-20 23:00:00,
2013-06-20 13:05:00,84.9,66.4,30.05,NE,45,8.0,-999.0,54,0.00,,,0.00,Wunderground v.1.15,2013-06-20 23:05:00,
2013-06-20 13:10:00,84.9,66.4,30.05,NE,45,8.0,-999.0,54,0.00,,,0.00,Wunderground v.1.15,2013-06-20 23:10:00,
2013-06-20 13:15:00,83.0,66.2,30.05,NE,45,8.0,-999.0,57,0.00,,,0.00,Wunderground v.1.15,2013-06-20 23:15:00,
2013-06-20 13:20:00,83.0,66.2,30.05,NE,45,8.0,-999.0,57,0.00,,,0.00,Wunderground v.1.15,2013-06-20 23:20:00,
2013-06-20 13:25:00,83.0,66.2,30.05,NE,45,8.0,-999.0,57,0.00,,,0.00,Wunderground v.1.15,2013-06-20 23:25:00,
2013-06-20 13:30:00,83.0,66.2,30.05,NE,45,8.0,-999.0,57,0.00,,,0.00,Wunderground v.1.15,2013-06-20 23:30:00,
2013-06-20 13:35:00,83.0,66.2,30.05,NE,45,8.0,-999.0,57,0.00,,,0.00,Wunderground v.1.15,2013-06-20 23:35:00,
2013-06-20 13:40:00,83.0,66.2,30.05,NE,45,8.0,-999.0,57,0.00,,,0.00,Wunderground v.1.15,2013-06-20 23:40:00,
2013-06-20 13:45:00,84.4,65.9,30.04,NE,45,8.0,-999.0,54,0.00,,,0.00,Wunderground v.1.15,2013-06-20 23:45:00,
2013-06-20 13:50:00,84.4,65.9,30.04,NE,45,8.0,-999.0,54,0.00,,,0.00,Wunderground v.1.15,2013-06-20 23:50:00,
2013-06-20 13:55:00,84.4,65.9,30.04,NE,45,8.0,-999.0,54,0.00,,,0.00,Wunderground v.1.15,2013-06-20 23:55:00,
2013-06-20 14:00:00,84.4,65.9,30.04,NE,45,8.0,-999.0,54,0.00,,,0.00,Wunderground v.1.15,2013-06-21 00:00:00,
2013-06-20 14:05:00,84.4,65.9,30.04,NE,45,8.0,-999.0,54,0.00,,,0.00,Wunderground v.1.15,2013-06-21 00:05:00,
2013-06-20 14:10:00,84.4,65.9,30.04,NE,45,8.0,-999.0,54,0.00,,,0.00,Wunderground v.1.15,2013-06-21 00:10:00,
2013-06-20 14:15:00,84.2,65.8,30.03,NE,45,9.0,-999.0,54,0.00,,,0.00,Wunderground v.1.15,2013-06-21 00:15:00,
2013-06-20 14:20:00,84.2,65.8,30.03,NE,45,9.0,-999.0,54,0.00,,,0.00,Wunderground v.1.15,2013-06-21 00:20:00,
2013-06-20 14:25:00,84.2,65.8,30.03,NE,45,9.0,-999.0,54,0.00,,,0.00,Wunderground v.1.15,2013-06-21 00:25:00,
2013-06-20 14:30:00,84.2,65.8,30.03,NE,45,9.0,-999.0,54,0.00,,,0.00,Wunderground v.1.15,2013-06-21 00:30:00,
2013-06-20 14:35:00,84.2,65.8,30.03,NE,45,9.0,-999.0,54,0.00,,,0.00,Wunderground v.1.15,2013-06-21 00:35:00,
2013-06-20 14:40:00,84.2,65.8,30.03,NE,45,9.0,-999.0,54,0.00,,,0.00,Wunderground v.1.15,2013-06-21 00:40:00,
2013-06-20 14:45:00,83.7,65.3,30.03,NE,45,7.0,-999.0,54,0.00,,,0.00,Wunderground v.1.15,2013-06-21 00:45:00,
2013-06-20 14:50:00,83.7,65.3,30.03,NE,45,7.0,-999.0,54,0.00,,,0.00,Wunderground v.1.15,2013-06-21 00:50:00,
2013-06-20 14:55:00,83.7,65.3,30.03,NE,45,7.0,-999.0,54,0.00,,,0.00,Wunderground v.1.15,2013-06-21 00:55:00,
2013-06-20 15:00:00,83.7,65.3,30.03,NE,45,7.0,-999.0,54,0.00,,,0.00,Wunderground v.1.15,2013-06-21 01:00:00,
2013-06-20 15:05:00,83.7,65.3,30.03,NE,45,7.0,-999.0,54,0.00,,,0.00,Wunderground v.1.15,2013-06-21 01:05:00,
2013-06-20 15:10:00,83.7,65.3,30.03,NE,45,7.0,-999.0,54,0.00,,,0.00,Wunderground v.1.15,2013-06-21 01:10:00,
2013-06-20 15:15:00,82.1,63.3,30.03,NE,45,8.0,-999.0,53,0.00,,,0.00,Wunderground v.1.15,2013-06-21 01:15:00,
2013-06-20 15:20:00,82.1,63.3,30.03,NE,45,8.0,-999.0,53,0.00,,,0.00,Wunderground v.1.15,2013-06-21 01:20:00,
2013-06-20 15:25:00,82.1,63.3,30.03,NE,45,8.0,-999.0,53,0.00,,,0.00,Wunderground v.1.15,2013-06-21 01:25:00,
2013-06-20 15:30:00,82.1,63.3,30.03,NE,45,8.0,-999.0,53,0.00,,,0.00,Wunderground v.1.15,2013-06-21 01:30:00,
2013-06-20 15:35:00,82.1,63.3,30.03,NE,45,8.0,-999.0,53,0.00,,,0.00,Wunderground v.1.15,2013-06-21 01:35:00,
2013-06-20 15:40:00,82.1,63.3,30.03,NE,45,8.0,-999.0,53,0.00,,,0.00,Wunderground v.1.15,2013-06-21 01:40:00,
2013-06-20 15:45:00,83.6,65.2,30.02,NE,45,8.0,-999.0,54,0.00,,,0.00,Wunderground v.1.15,2013-06-21 01:45:00,
2013-06-20 15:50:00,83.6,65.2,30.02,NE,45,8.0,-999.0,54,0.00,,,0.00,Wunderground v.1.15,2013-06-21 01:50:00,
2013-06-20 15:55:00,83.6,65.2,30.02,NE,45,8.0,-999.0,54,0.00,,,0.00,Wunderground v.1.15,2013-06-21 01:55:00,
2013-06-20 16:00:00,83.6,65.2,30.02,NE,45,8.0,-999.0,54,0.00,,,0.00,Wunderground v.1.15,2013-06-21 02:00:00,
2013-06-20 16:05:00,83.6,65.2,30.02,NE,45,8.0,-999.0,54,0.00,,,0.00,Wunderground v.1.15,2013-06-21 02:05:00,
2013-06-20 16:10:00,83.6,65.2,30.02,NE,45,8.0,-999.0,54,0.00,,,0.00,Wunderground v.1.15,2013-06-21 02:10:00,
2013-06-20 16:15:00,83.5,71.4,30.03,NE,45,8.0,-999.0,67,0.00,,,0.00,Wunderground v.1.15,2013-06-21 02:15:00,
2013-06-20 16:20:00,83.5,71.4,30.03,NE,45,8.0,-999.0,67,0.00,,,0.00,Wunderground v.1.15,2013-06-21 02:20:00,
2013-06-20 16:25:00,83.5,71.4,30.03,NE,45,8.0,-999.0,67,0.00,,,0.00,Wunderground v.1.15,2013-06-21 02:25:00,
2013-06-20 16:30:00,83.5,71.4,30.03,NE,45,8.0,-999.0,67,0.00,,,0.00,Wunderground v.1.15,2013-06-21 02:30:00,
2013-06-20 16:35:00,83.5,71.4,30.03,NE,45,8.0,-999.0,67,0.00,,,0.00,Wunderground v.1.15,2013-06-21 02:35:00,
2013-06-20 16:40:00,83.5,71.4,30.03,NE,45,8.0,-999.0,67,0.00,,,0.00,Wunderground v.1.15,2013-06-21 02:40:00,
2013-06-20 16:45:00,78.7,67.7,30.03,NE,45,6.0,-999.0,69,0.00,,,0.00,Wunderground v.1.15,2013-06-21 02:45:00,
2013-06-20 16:50:00,78.7,67.7,30.03,NE,45,6.0,-999.0,69,0.00,,,0.00,Wunderground v.1.15,2013-06-21 02:50:00,
2013-06-20 16:55:00,78.7,67.7,30.03,NE,45,6.0,-999.0,69,0.00,,,0.00,Wunderground v.1.15,2013-06-21 02:55:00,
2013-06-20 17:00:00,78.7,67.7,30.03,NE,45,6.0,-999.0,69,0.00,,,0.00,Wunderground v.1.15,2013-06-21 03:00:00,
2013-06-20 17:05:00,78.7,67.7,30.03,NE,45,6.0,-999.0,69,0.00,,,0.00,Wunderground v.1.15,2013-06-21 03:05:00,
2013-06-20 17:10:00,78.7,67.7,30.03,NE,45,6.0,-999.0,69,0.00,,,0.00,Wunderground v.1.15,2013-06-21 03:10:00,
2013-06-20 17:15:00,77.3,65.1,30.04,NE,45,7.0,-999.0,66,0.00,,,0.00,Wunderground v.1.15,2013-06-21 03:15:00,
2013-06-20 17:20:00,77.3,65.1,30.04,NE,45,7.0,-999.0,66,0.00,,,0.00,Wunderground v.1.15,2013-06-21 03:20:00,
2013-06-20 17:25:00,77.3,65.1,30.04,NE,45,7.0,-999.0,66,0.00,,,0.00,Wunderground v.1.15,2013-06-21 03:25:00,
2013-06-20 17:30:00,77.3,65.1,30.04,NE,45,7.0,-999.0,66,0.00,,,0.00,Wunderground v.1.15,2013-06-21 03:30:00,
2013-06-20 17:35:00,77.3,65.1,30.04,NE,45,7.0,-999.0,66,0.00,,,0.00,Wunderground v.1.15,2013-06-21 03:35:00,
2013-06-20 17:40:00,77.3,65.1,30.04,NE,45,7.0,-999.0,66,0.00,,,0.00,Wunderground v.1.15,2013-06-21 03:40:00,
2013-06-20 17:45:00,78.0,66.2,30.04,NE,45,7.0,-999.0,67,0.00,,,0.00,Wunderground v.1.15,2013-06-21 03:45:00,
2013-06-20 17:50:00,78.0,66.2,30.04,NE,45,7.0,-999.0,67,0.00,,,0.00,Wunderground v.1.15,2013-06-21 03:50:00,
2013-06-20 17:55:00,78.0,66.2,30.04,NE,45,7.0,-999.0,67,0.00,,,0.00,Wunderground v.1.15,2013-06-21 03:55:00,
2013-06-20 18:00:00,78.0,66.2,30.04,NE,45,7.0,-999.0,67,0.00,,,0.00,Wunderground v.1.15,2013-06-21 04:00:00,
2013-06-20 18:05:00,78.0,66.2,30.04,NE,45,7.0,-999.0,67,0.00,,,0.00,Wunderground v.1.15,2013-06-21 04:05:00,
2013-06-20 18:10:00,78.0,66.2,30.04,NE,45,7.0,-999.0,67,0.00,,,0.00,Wunderground v.1.15,2013-06-21 04:10:00,
2013-06-20 18:15:00,77.3,65.1,30.05,ENE,68,7.0,-999.0,66,0.00,,,0.00,Wunderground v.1.15,2013-06-21 04:15:00,
2013-06-20 18:20:00,77.3,65.1,30.05,ENE,68,7.0,-999.0,66,0.00,,,0.00,Wunderground v.1.15,2013-06-21 04:20:00,
2013-06-20 18:25:00,77.3,65.1,30.05,ENE,68,7.0,-999.0,66,0.00,,,0.00,Wunderground v.1.15,2013-06-21 04:25:00,
2013-06-20 18:30:00,77.3,65.1,30.05,ENE,68,7.0,-999.0,66,0.00,,,0.00,Wunderground v.1.15,2013-06-21 04:30:00,
2013-06-20 18:35:00,77.3,65.1,30.05,ENE,68,7.0,-999.0,66,0.00,,,0.00,Wunderground v.1.15,2013-06-21 04:35:00,
2013-06-20 18:40:00,77.3,65.1,30.05,ENE,68,7.0,-999.0,66,0.00,,,0.00,Wunderground v.1.15,2013-06-21 04:40:00,
2013-06-20 18:45:00,75.2,65.1,30.06,NE,45,7.0,-999.0,71,0.00,,,0.00,Wunderground v.1.15,2013-06-21 04:45:00,
2013-06-20 18:50:00,75.2,65.1,30.06,NE,45,7.0,-999.0,71,0.00,,,0.00,Wunderground v.1.15,2013-06-21 04:50:00,
2013-06-20 18:55:00,75.2,65.1,30.06,NE,45,7.0,-999.0,71,0.00,,,0.00,Wunderground v.1.15,2013-06-21 04:55:00,
2013-06-20 19:00:00,75.2,65.1,30.06,NE,45,7.0,-999.0,71,0.00,,,0.00,Wunderground v.1.15,2013-06-21 05:00:00,
2013-06-20 19:05:00,75.2,65.1,30.06,NE,45,7.0,-999.0,71,0.00,,,0.00,Wunderground v.1.15,2013-06-21 05:05:00,
2013-06-20 19:10:00,75.2,65.1,30.06,NE,45,7.0,-999.0,71,0.00,,,0.00,Wunderground v.1.15,2013-06-21 05:10:00,
2013-06-20 19:15:00,73.4,67.2,30.06,NE,45,6.0,-999.0,81,0.00,,,0.00,Wunderground v.1.15,2013-06-21 05:15:00,
2013-06-20 19:20:00,73.4,67.2,30.06,NE,45,6.0,-999.0,81,0.00,,,0.00,Wunderground v.1.15,2013-06-21 05:20:00,
2013-06-20 19:25:00,73.4,67.2,30.06,NE,45,6.0,-999.0,81,0.00,,,0.00,Wunderground v.1.15,2013-06-21 05:25:00,
2013-06-20 19:30:00,73.4,67.2,30.06,NE,45,6.0,-999.0,81,0.00,,,0.00,Wunderground v.1.15,2013-06-21 05:30:00,
2013-06-20 19:35:00,73.4,67.2,30.06,NE,45,6.0,-999.0,81,0.00,,,0.00,Wunderground v.1.15,2013-06-21 05:35:00,
2013-06-20 19:40:00,73.4,67.2,30.06,NE,45,6.0,-999.0,81,0.00,,,0.00,Wunderground v.1.15,2013-06-21 05:40:00,
2013-06-20 19:45:00,70.8,65.7,30.07,NE,45,5.0,-999.0,84,0.00,,,0.00,Wunderground v.1.15,2013-06-21 05:45:00,
2013-06-20 19:50:00,70.8,65.7,30.07,NE,45,5.0,-999.0,84,0.00,,,0.00,Wunderground v.1.15,2013-06-21 05:50:00,
2013-06-20 19:55:00,70.8,65.7,30.07,NE,45,5.0,-999.0,84,0.00,,,0.00,Wunderground v.1.15,2013-06-21 05:55:00,
2013-06-20 20:00:00,70.8,65.7,30.07,NE,45,5.0,-999.0,84,0.00,,,0.00,Wunderground v.1.15,2013-06-21 06:00:00,
2013-06-20 20:05:00,70.8,65.7,30.07,NE,45,5.0,-999.0,84,0.00,,,0.00,Wunderground v.1.15,2013-06-21 06:05:00,
2013-06-20 20:10:00,70.8,65.7,30.07,NE,45,5.0,-999.0,84,0.00,,,0.00,Wunderground v.1.15,2013-06-21 06:10:00,
2013-06-20 20:15:00,70.5,64.7,30.08,NE,45,7.0,-999.0,82,0.00,,,0.00,Wunderground v.1.15,2013-06-21 06:15:00,
2013-06-20 20:20:00,70.5,64.7,30.08,NE,45,7.0,-999.0,82,0.00,,,0.00,Wunderground v.1.15,2013-06-21 06:20:00,
2013-06-20 20:25:00,70.5,64.7,30.08,NE,45,7.0,-999.0,82,0.00,,,0.00,Wunderground v.1.15,2013-06-21 06:25:00,
2013-06-20 20:30:00,70.5,64.7,30.08,NE,45,7.0,-999.0,82,0.00,,,0.00,Wunderground v.1.15,2013-06-21 06:30:00,
2013-06-20 20:35:00,70.5,64.7,30.08,NE,45,7.0,-999.0,82,0.00,,,0.00,Wunderground v.1.15,2013-06-21 06:35:00,
2013-06-20 20:40:00,70.5,64.7,30.08,NE,45,7.0,-999.0,82,0.00,,,0.00,Wunderground v.1.15,2013-06-21 06:40:00,
2013-06-20 20:45:00,70.1,65.4,30.09,NE,45,8.0,-999.0,85,0.00,,,0.00,Wunderground v.1.15,2013-06-21 06:45:00,
2013-06-20 20:50:00,70.1,65.4,30.09,NE,45,8.0,-999.0,85,0.00,,,0.00,Wunderground v.1.15,2013-06-21 06:50:00,
2013-06-20 20:55:00,70.1,65.4,30.09,NE,45,8.0,-999.0,85,0.00,,,0.00,Wunderground v.1.15,2013-06-21 06:55:00,
2013-06-20 21:00:00,70.1,65.4,30.09,NE,45,8.0,-999.0,85,0.00,,,0.00,Wunderground v.1.15,2013-06-21 07:00:00,
2013-06-20 21:05:00,70.1,65.4,30.09,NE,45,8.0,-999.0,85,0.00,,,0.00,Wunderground v.1.15,2013-06-21 07:05:00,
2013-06-20 21:10:00,70.1,65.4,30.09,NE,45,8.0,-999.0,85,0.00,,,0.00,Wunderground v.1.15,2013-06-21 07:10:00,
2013-06-20 21:15:00,69.6,65.2,30.10,NE,45,6.0,-999.0,86,0.00,,,0.00,Wunderground v.1.15,2013-06-21 07:15:00,
2013-06-20 21:20:00,69.6,65.2,30.10,NE,45,6.0,-999.0,86,0.00,,,0.00,Wunderground v.1.15,2013-06-21 07:20:00,
2013-06-20 21:25:00,69.6,65.2,30.10,NE,45,6.0,-999.0,86,0.00,,,0.00,Wunderground v.1.15,2013-06-21 07:25:00,
2013-06-20 21:30:00,69.6,65.2,30.10,NE,45,6.0,-999.0,86,0.00,,,0.00,Wunderground v.1.15,2013-06-21 07:30:00,
2013-06-20 21:35:00,69.6,65.2,30.10,NE,45,6.0,-999.0,86,0.00,,,0.00,Wunderground v.1.15,2013-06-21 07:35:00,
2013-06-20 21:40:00,69.6,65.2,30.10,NE,45,6.0,-999.0,86,0.00,,,0.00,Wunderground v.1.15,2013-06-21 07:40:00,
2013-06-20 21:45:00,69.8,65.1,30.10,NE,45,6.0,-999.0,85,0.00,,,0.00,Wunderground v.1.15,2013-06-21 07:45:00,
2013-06-20 21:50:00,69.8,65.1,30.10,NE,45,6.0,-999.0,85,0.00,,,0.00,Wunderground v.1.15,2013-06-21 07:50:00,
2013-06-20 21:55:00,69.8,65.1,30.10,NE,45,6.0,-999.0,85,0.00,,,0.00,Wunderground v.1.15,2013-06-21 07:55:00,
2013-06-20 22:00:00,69.8,65.1,30.10,NE,45,6.0,-999.0,85,0.00,,,0.00,Wunderground v.1.15,2013-06-21 08:00:00,
2013-06-20 22:05:00,69.8,65.1,30.10,NE,45,6.0,-999.0,85,0.00,,,0.00,Wunderground v.1.15,2013-06-21 08:05:00,
2013-06-20 22:10:00,69.8,65.1,30.10,NE,45,6.0,-999.0,85,0.00,,,0.00,Wunderground v.1.15,2013-06-21 08:10:00,
2013-06-20 22:15:00,69.3,64.3,30.11,ENE,68,5.0,-999.0,84,0.00,,,0.00,Wunderground v.1.15,2013-06-21 08:15:00,
2013-06-20 22:20:00,69.3,64.3,30.11,ENE,68,5.0,-999.0,84,0.00,,,0.00,Wunderground v.1.15,2013-06-21 08:20:00,
2013-06-20 22:25:00,69.3,64.3,30.11,ENE,68,5.0,-999.0,84,0.00,,,0.00,Wunderground v.1.15,2013-06-21 08:25:00,
2013-06-20 22:30:00,69.3,64.3,30.11,ENE,68,5.0,-999.0,84,0.00,,,0.00,Wunderground v.1.15,2013-06-21 08:30:00,
2013-06-20 22:35:00,69.3,64.3,30.11,ENE,68,5.0,-999.0,84,0.00,,,0.00,Wunderground v.1.15,2013-06-21 08:35:00,
2013-06-20 22:40:00,69.3,64.3,30.11,ENE,68,5.0,-999.0,84,0.00,,,0.00,Wunderground v.1.15,2013-06-21 08:40:00,
2013-06-20 22:45:00,69.5,63.4,30.11,ENE,68,3.0,-999.0,81,0.00,,,0.00,Wunderground v.1.15,2013-06-21 08:45:00,
2013-06-20 22:50:00,69.5,63.4,30.11,ENE,68,3.0,-999.0,81,0.00,,,0.00,Wunderground v.1.15,2013-06-21 08:50:00,
2013-06-20 22:55:00,69.5,63.4,30.11,ENE,68,3.0,-999.0,81,0.00,,,0.00,Wunderground v.1.15,2013-06-21 08:55:00,
2013-06-20 23:00:00,69.5,63.4,30.11,ENE,68,3.0,-999.0,81,0.00,,,0.00,Wunderground v.1.15,2013-06-21 09:00:00,
2013-06-20 23:05:00,69.5,63.4,30.11,ENE,68,3.0,-999.0,81,0.00,,,0.00,Wunderground v.1.15,2013-06-21 09:05:00,
2013-06-20 23:10:00,69.5,63.4,30.11,ENE,68,3.0,-999.0,81,0.00,,,0.00,Wunderground v.1.15,2013-06-21 09:10:00,
2013-06-20 23:15:00,69.3,62.1,30.10,NE,45,3.0,-999.0,78,0.00,,,0.00,Wunderground v.1.15,2013-06-21 09:15:00,
2013-06-20 23:20:00,69.3,62.1,30.10,NE,45,3.0,-999.0,78,0.00,,,0.00,Wunderground v.1.15,2013-06-21 09:20:00,
2013-06-20 23:25:00,69.3,62.1,30.10,NE,45,3.0,-999.0,78,0.00,,,0.00,Wunderground v.1.15,2013-06-21 09:25:00,
2013-06-20 23:30:00,69.3,62.1,30.10,NE,45,3.0,-999.0,78,0.00,,,0.00,Wunderground v.1.15,2013-06-21 09:30:00,
2013-06-20 23:35:00,69.3,62.1,30.10,NE,45,3.0,-999.0,78,0.00,,,0.00,Wunderground v.1.15,2013-06-21 09:35:00,
2013-06-20 23:40:00,69.3,62.1,30.10,NE,45,3.0,-999.0,78,0.00,,,0.00,Wunderground v.1.15,2013-06-21 09:40:00,
2013-06-20 23:45:00,68.8,62.0,30.11,NE,45,4.0,-999.0,79,0.00,,,0.00,Wunderground v.1.15,2013-06-21 09:45:00,
2013-06-20 23:50:00,68.8,62.0,30.11,NE,45,4.0,-999.0,79,0.00,,,0.00,Wunderground v.1.15,2013-06-21 09:50:00,
2013-06-20 23:55:00,68.8,62.0,30.11,NE,45,4.0,-999.0,79,0.00,,,0.00,Wunderground v.1.15,2013-06-21 09:55:00,